sensor_id;sensor_type;location;lat;lon;timestamp;temperature;humidity
12811;DHT22;6470;47.654;7.896;2024-01-10T00:09:24;-2.30;99.90
12811;DHT22;6470;47.654;7.896;2024-01-10T00:11:49;-1.90;99.90
12811;DHT22;6470;47.654;7.896;2024-01-10T00:14:15;-2.70;99.90
12811;DHT22;6470;47.654;7.896;2024-01-10T00:19:08;-3.00;99.90
12811;DHT22;6470;47.654;7.896;2024-01-10T00:24:01;-2.60;99.90
12811;DHT22;6470;47.654;7.896;2024-01-10T00:26:27;-2.70;99.90
12811;DHT22;6470;47.654;7.896;2024-01-10T00:28:52;-3.50;99.90
12811;DHT22;6470;47.654;7.896;2024-01-10T00:31:18;-3.00;99.90
12811;DHT22;6470;47.654;7.896;2024-01-10T00:33:44;-2.80;99.90
12811;DHT22;6470;47.654;7.896;2024-01-10T00:36:09;-5.70;99.90
12811;DHT22;6470;47.654;7.896;2024-01-10T00:38:36;-2.80;99.90
12811;DHT22;6470;47.654;7.896;2024-01-10T00:41:02;-2.90;99.90
12811;DHT22;6470;47.654;7.896;2024-01-10T00:43:28;-2.80;99.90
12811;DHT22;6470;47.654;7.896;2024-01-10T00:45:54;-3.30;99.90
12811;DHT22;6470;47.654;7.896;2024-01-10T00:48:19;-2.30;99.90
12811;DHT22;6470;47.654;7.896;2024-01-10T00:50:45;-2.30;99.90
12811;DHT22;6470;47.654;7.896;2024-01-10T00:53:11;-2.60;99.90
12811;DHT22;6470;47.654;7.896;2024-01-10T00:55:37;-2.00;99.90
12811;DHT22;6470;47.654;7.896;2024-01-10T01:00:29;-2.20;99.90
12811;DHT22;6470;47.654;7.896;2024-01-10T01:02:54;-5.60;99.90
12811;DHT22;6470;47.654;7.896;2024-01-10T01:05:20;-2.70;99.90
12811;DHT22;6470;47.654;7.896;2024-01-10T01:07:46;-2.50;99.90
12811;DHT22;6470;47.654;7.896;2024-01-10T01:15:05;-3.10;99.90
12811;DHT22;6470;47.654;7.896;2024-01-10T01:17:31;-2.90;99.90
12811;DHT22;6470;47.654;7.896;2024-01-10T01:19:57;-3.00;99.90
12811;DHT22;6470;47.654;7.896;2024-01-10T01:22:22;-3.70;99.90
12811;DHT22;6470;47.654;7.896;2024-01-10T01:24:48;-3.50;99.90
12811;DHT22;6470;47.654;7.896;2024-01-10T01:29:40;-3.20;99.90
12811;DHT22;6470;47.654;7.896;2024-01-10T01:34:31;-5.70;99.90
12811;DHT22;6470;47.654;7.896;2024-01-10T01:36:57;-3.50;99.90
12811;DHT22;6470;47.654;7.896;2024-01-10T01:39:23;-3.40;99.90
12811;DHT22;6470;47.654;7.896;2024-01-10T01:41:49;-6.00;99.90
12811;DHT22;6470;47.654;7.896;2024-01-10T01:44:14;-3.30;99.90
12811;DHT22;6470;47.654;7.896;2024-01-10T01:46:40;-3.50;99.90
12811;DHT22;6470;47.654;7.896;2024-01-10T01:49:06;-2.70;99.90
12811;DHT22;6470;47.654;7.896;2024-01-10T01:51:35;-2.80;99.90
12811;DHT22;6470;47.654;7.896;2024-01-10T01:54:06;-3.00;99.90
12811;DHT22;6470;47.654;7.896;2024-01-10T01:56:34;-3.00;99.90
12811;DHT22;6470;47.654;7.896;2024-01-10T01:59:02;-2.90;99.90
12811;DHT22;6470;47.654;7.896;2024-01-10T02:01:28;-2.80;99.90
12811;DHT22;6470;47.654;7.896;2024-01-10T02:03:55;-2.80;99.90
12811;DHT22;6470;47.654;7.896;2024-01-10T02:06:20;-2.50;99.90
12811;DHT22;6470;47.654;7.896;2024-01-10T02:08:46;-2.70;99.90
12811;DHT22;6470;47.654;7.896;2024-01-10T02:13:38;-2.80;99.90
12811;DHT22;6470;47.654;7.896;2024-01-10T02:16:04;-2.90;99.90
12811;DHT22;6470;47.654;7.896;2024-01-10T02:18:30;-3.60;99.90
12811;DHT22;6470;47.654;7.896;2024-01-10T02:20:56;-3.20;99.90
12811;DHT22;6470;47.654;7.896;2024-01-10T02:23:23;-2.80;99.90
12811;DHT22;6470;47.654;7.896;2024-01-10T02:25:49;-3.70;99.90
12811;DHT22;6470;47.654;7.896;2024-01-10T02:28:15;-3.80;99.90
12811;DHT22;6470;47.654;7.896;2024-01-10T02:30:40;-2.90;99.90
12811;DHT22;6470;47.654;7.896;2024-01-10T02:33:06;-2.70;99.90
12811;DHT22;6470;47.654;7.896;2024-01-10T02:35:32;-2.40;99.90
12811;DHT22;6470;47.654;7.896;2024-01-10T02:37:59;-3.20;99.90
12811;DHT22;6470;47.654;7.896;2024-01-10T02:40:25;-3.10;99.90
12811;DHT22;6470;47.654;7.896;2024-01-10T02:42:50;-5.70;99.90
12811;DHT22;6470;47.654;7.896;2024-01-10T02:47:45;-3.00;99.90
12811;DHT22;6470;47.654;7.896;2024-01-10T02:50:11;-3.00;99.90
12811;DHT22;6470;47.654;7.896;2024-01-10T02:52:37;-2.90;99.90
12811;DHT22;6470;47.654;7.896;2024-01-10T02:55:02;-3.20;99.90
12811;DHT22;6470;47.654;7.896;2024-01-10T02:57:28;-3.40;99.90
12811;DHT22;6470;47.654;7.896;2024-01-10T03:02:20;-2.80;99.90
12811;DHT22;6470;47.654;7.896;2024-01-10T03:04:47;-2.90;99.90
12811;DHT22;6470;47.654;7.896;2024-01-10T03:07:13;-3.00;99.90
12811;DHT22;6470;47.654;7.896;2024-01-10T03:12:05;-3.00;99.90
12811;DHT22;6470;47.654;7.896;2024-01-10T03:14:30;-2.80;99.90
12811;DHT22;6470;47.654;7.896;2024-01-10T03:16:58;-3.50;99.90
12811;DHT22;6470;47.654;7.896;2024-01-10T03:19:23;-3.40;99.90
12811;DHT22;6470;47.654;7.896;2024-01-10T03:21:49;-2.70;99.90
12811;DHT22;6470;47.654;7.896;2024-01-10T03:24:15;-3.30;99.90
12811;DHT22;6470;47.654;7.896;2024-01-10T03:26:40;-2.90;99.90
12811;DHT22;6470;47.654;7.896;2024-01-10T03:31:32;-3.20;99.90
12811;DHT22;6470;47.654;7.896;2024-01-10T03:33:58;-5.50;99.90
12811;DHT22;6470;47.654;7.896;2024-01-10T03:36:24;-2.70;99.90
12811;DHT22;6470;47.654;7.896;2024-01-10T03:41:20;-2.90;99.90
12811;DHT22;6470;47.654;7.896;2024-01-10T03:43:46;-2.50;99.90
12811;DHT22;6470;47.654;7.896;2024-01-10T03:46:12;-2.90;99.90
12811;DHT22;6470;47.654;7.896;2024-01-10T03:48:39;-2.80;99.90
12811;DHT22;6470;47.654;7.896;2024-01-10T03:51:13;-2.60;99.90
12811;DHT22;6470;47.654;7.896;2024-01-10T03:53:40;-3.10;99.90
12811;DHT22;6470;47.654;7.896;2024-01-10T03:58:32;-3.00;99.90
12811;DHT22;6470;47.654;7.896;2024-01-10T04:03:23;-3.60;99.90
12811;DHT22;6470;47.654;7.896;2024-01-10T04:05:49;-3.10;99.90
12811;DHT22;6470;47.654;7.896;2024-01-10T04:08:15;-2.80;99.90
12811;DHT22;6470;47.654;7.896;2024-01-10T04:10:41;-3.40;99.90
12811;DHT22;6470;47.654;7.896;2024-01-10T04:13:06;-2.60;99.90
12811;DHT22;6470;47.654;7.896;2024-01-10T04:15:32;-2.30;99.90
12811;DHT22;6470;47.654;7.896;2024-01-10T04:17:58;-2.90;99.90
12811;DHT22;6470;47.654;7.896;2024-01-10T04:22:50;-2.40;99.90
12811;DHT22;6470;47.654;7.896;2024-01-10T04:25:15;-2.50;99.90
12811;DHT22;6470;47.654;7.896;2024-01-10T04:27:41;-2.80;99.90
12811;DHT22;6470;47.654;7.896;2024-01-10T04:32:33;-2.60;99.90
12811;DHT22;6470;47.654;7.896;2024-01-10T04:35:00;-2.70;99.90
12811;DHT22;6470;47.654;7.896;2024-01-10T04:37:26;-2.60;99.90
12811;DHT22;6470;47.654;7.896;2024-01-10T04:39:52;-5.40;99.90
12811;DHT22;6470;47.654;7.896;2024-01-10T04:42:17;-2.60;99.90
12811;DHT22;6470;47.654;7.896;2024-01-10T04:44:43;-2.70;99.90
12811;DHT22;6470;47.654;7.896;2024-01-10T04:49:35;-6.20;99.90
12811;DHT22;6470;47.654;7.896;2024-01-10T04:52:01;-2.60;99.90
12811;DHT22;6470;47.654;7.896;2024-01-10T04:54:27;-6.20;99.90
12811;DHT22;6470;47.654;7.896;2024-01-10T04:56:52;-2.40;99.90
12811;DHT22;6470;47.654;7.896;2024-01-10T04:59:18;-3.60;99.90
12811;DHT22;6470;47.654;7.896;2024-01-10T05:01:44;-4.00;99.90
12811;DHT22;6470;47.654;7.896;2024-01-10T05:04:09;-3.20;99.90
12811;DHT22;6470;47.654;7.896;2024-01-10T05:06:35;-3.20;99.90
12811;DHT22;6470;47.654;7.896;2024-01-10T05:09:01;-2.90;99.90
12811;DHT22;6470;47.654;7.896;2024-01-10T05:11:27;-2.90;99.90
12811;DHT22;6470;47.654;7.896;2024-01-10T05:13:53;-2.70;99.90
12811;DHT22;6470;47.654;7.896;2024-01-10T05:18:45;-3.60;99.90
12811;DHT22;6470;47.654;7.896;2024-01-10T05:21:11;-6.20;99.90
12811;DHT22;6470;47.654;7.896;2024-01-10T05:23:37;-3.30;99.90
12811;DHT22;6470;47.654;7.896;2024-01-10T05:26:05;-3.00;99.90
12811;DHT22;6470;47.654;7.896;2024-01-10T05:28:30;-6.40;99.90
12811;DHT22;6470;47.654;7.896;2024-01-10T05:30:57;-3.50;99.90
12811;DHT22;6470;47.654;7.896;2024-01-10T05:33:23;-3.80;99.90
12811;DHT22;6470;47.654;7.896;2024-01-10T05:35:49;-3.10;99.90
12811;DHT22;6470;47.654;7.896;2024-01-10T05:38:14;-6.60;99.90
12811;DHT22;6470;47.654;7.896;2024-01-10T05:43:07;-3.70;99.90
12811;DHT22;6470;47.654;7.896;2024-01-10T05:50:25;-3.20;99.90
12811;DHT22;6470;47.654;7.896;2024-01-10T05:57:43;-3.90;99.90
12811;DHT22;6470;47.654;7.896;2024-01-10T06:00:09;-4.50;99.90
12811;DHT22;6470;47.654;7.896;2024-01-10T06:05:08;-3.90;99.90
12811;DHT22;6470;47.654;7.896;2024-01-10T06:10:01;-3.70;99.90
12811;DHT22;6470;47.654;7.896;2024-01-10T06:12:27;-3.70;99.90
12811;DHT22;6470;47.654;7.896;2024-01-10T06:14:53;-3.80;99.90
12811;DHT22;6470;47.654;7.896;2024-01-10T06:17:19;-4.10;99.90
12811;DHT22;6470;47.654;7.896;2024-01-10T06:19:45;-7.20;99.90
12811;DHT22;6470;47.654;7.896;2024-01-10T06:22:10;-3.80;99.90
12811;DHT22;6470;47.654;7.896;2024-01-10T06:27:08;-7.10;99.90
12811;DHT22;6470;47.654;7.896;2024-01-10T06:29:35;-4.10;99.90
12811;DHT22;6470;47.654;7.896;2024-01-10T06:32:02;-3.40;99.90
12811;DHT22;6470;47.654;7.896;2024-01-10T06:34:28;-3.50;99.90
12811;DHT22;6470;47.654;7.896;2024-01-10T06:36:54;-4.20;99.90
12811;DHT22;6470;47.654;7.896;2024-01-10T06:39:19;-3.60;99.90
12811;DHT22;6470;47.654;7.896;2024-01-10T06:41:49;-3.40;99.90
12811;DHT22;6470;47.654;7.896;2024-01-10T06:44:15;-6.00;99.90
12811;DHT22;6470;47.654;7.896;2024-01-10T06:46:43;-3.40;99.90
12811;DHT22;6470;47.654;7.896;2024-01-10T06:49:09;-3.50;99.90
12811;DHT22;6470;47.654;7.896;2024-01-10T06:51:35;-3.20;99.90
12811;DHT22;6470;47.654;7.896;2024-01-10T06:56:32;-3.50;99.90
12811;DHT22;6470;47.654;7.896;2024-01-10T06:58:58;-6.50;99.90
12811;DHT22;6470;47.654;7.896;2024-01-10T07:01:24;-3.00;99.90
12811;DHT22;6470;47.654;7.896;2024-01-10T07:03:51;-3.50;99.90
12811;DHT22;6470;47.654;7.896;2024-01-10T07:06:17;-3.60;99.90
12811;DHT22;6470;47.654;7.896;2024-01-10T07:08:44;-3.10;99.90
12811;DHT22;6470;47.654;7.896;2024-01-10T07:13:38;-6.60;99.90
12811;DHT22;6470;47.654;7.896;2024-01-10T07:16:04;-3.40;99.90
12811;DHT22;6470;47.654;7.896;2024-01-10T07:18:30;-3.20;99.90
12811;DHT22;6470;47.654;7.896;2024-01-10T07:20:56;-3.30;99.90
12811;DHT22;6470;47.654;7.896;2024-01-10T07:23:22;-3.60;99.90
12811;DHT22;6470;47.654;7.896;2024-01-10T07:25:50;-2.80;99.90
12811;DHT22;6470;47.654;7.896;2024-01-10T07:33:10;-2.90;99.90
12811;DHT22;6470;47.654;7.896;2024-01-10T07:35:36;-3.50;99.90
12811;DHT22;6470;47.654;7.896;2024-01-10T07:38:03;-3.00;99.90
12811;DHT22;6470;47.654;7.896;2024-01-10T07:40:29;-3.00;99.90
12811;DHT22;6470;47.654;7.896;2024-01-10T07:42:55;-3.20;99.90
12811;DHT22;6470;47.654;7.896;2024-01-10T07:45:21;-6.20;99.90
12811;DHT22;6470;47.654;7.896;2024-01-10T07:47:47;-3.00;99.90
12811;DHT22;6470;47.654;7.896;2024-01-10T07:50:13;-3.10;99.90
12811;DHT22;6470;47.654;7.896;2024-01-10T07:55:06;-2.70;99.90
12811;DHT22;6470;47.654;7.896;2024-01-10T07:57:35;-3.20;99.90
12811;DHT22;6470;47.654;7.896;2024-01-10T08:00:03;-3.10;99.90
12811;DHT22;6470;47.654;7.896;2024-01-10T08:02:29;-2.80;99.90
12811;DHT22;6470;47.654;7.896;2024-01-10T08:05:00;-5.70;99.90
12811;DHT22;6470;47.654;7.896;2024-01-10T08:07:26;-5.30;99.90
12811;DHT22;6470;47.654;7.896;2024-01-10T08:09:52;-2.40;99.90
12811;DHT22;6470;47.654;7.896;2024-01-10T08:12:17;-2.70;99.90
12811;DHT22;6470;47.654;7.896;2024-01-10T08:14:44;-3.00;99.90
12811;DHT22;6470;47.654;7.896;2024-01-10T08:19:37;-2.80;99.90
12811;DHT22;6470;47.654;7.896;2024-01-10T08:22:04;-2.80;99.90
12811;DHT22;6470;47.654;7.896;2024-01-10T08:24:29;-2.50;99.90
12811;DHT22;6470;47.654;7.896;2024-01-10T08:26:55;-2.50;99.90
12811;DHT22;6470;47.654;7.896;2024-01-10T08:29:21;-2.60;99.90
12811;DHT22;6470;47.654;7.896;2024-01-10T08:31:47;-2.60;99.90
12811;DHT22;6470;47.654;7.896;2024-01-10T08:34:13;-2.00;99.90
12811;DHT22;6470;47.654;7.896;2024-01-10T08:36:39;-2.00;99.90
12811;DHT22;6470;47.654;7.896;2024-01-10T08:39:05;-2.30;99.90
12811;DHT22;6470;47.654;7.896;2024-01-10T08:41:32;-2.30;99.90
12811;DHT22;6470;47.654;7.896;2024-01-10T08:43:58;-2.40;99.90
12811;DHT22;6470;47.654;7.896;2024-01-10T08:46:25;-2.10;99.90
12811;DHT22;6470;47.654;7.896;2024-01-10T08:48:51;-2.10;99.90
12811;DHT22;6470;47.654;7.896;2024-01-10T08:51:16;-2.10;99.90
12811;DHT22;6470;47.654;7.896;2024-01-10T08:53:45;-1.60;99.90
12811;DHT22;6470;47.654;7.896;2024-01-10T08:56:11;-1.50;99.90
12811;DHT22;6470;47.654;7.896;2024-01-10T08:58:37;-1.60;99.90
12811;DHT22;6470;47.654;7.896;2024-01-10T09:01:03;-1.20;99.90
12811;DHT22;6470;47.654;7.896;2024-01-10T09:03:33;-1.10;99.90
12811;DHT22;6470;47.654;7.896;2024-01-10T09:05:59;-2.00;99.90
12811;DHT22;6470;47.654;7.896;2024-01-10T09:08:25;-1.30;99.90
12811;DHT22;6470;47.654;7.896;2024-01-10T09:10:51;-1.40;99.90
12811;DHT22;6470;47.654;7.896;2024-01-10T09:15:42;2.20;99.90
12811;DHT22;6470;47.654;7.896;2024-01-10T09:18:08;2.50;99.90
12811;DHT22;6470;47.654;7.896;2024-01-10T09:20:34;2.40;99.90
12811;DHT22;6470;47.654;7.896;2024-01-10T09:23:02;2.30;99.90
12811;DHT22;6470;47.654;7.896;2024-01-10T09:25:28;1.90;99.90
12811;DHT22;6470;47.654;7.896;2024-01-10T09:27:54;2.50;99.90
12811;DHT22;6470;47.654;7.896;2024-01-10T09:30:20;2.50;99.90
12811;DHT22;6470;47.654;7.896;2024-01-10T09:35:12;2.10;99.90
12811;DHT22;6470;47.654;7.896;2024-01-10T09:37:38;2.50;99.90
12811;DHT22;6470;47.654;7.896;2024-01-10T09:40:05;2.50;99.90
12811;DHT22;6470;47.654;7.896;2024-01-10T09:42:34;2.20;99.90
12811;DHT22;6470;47.654;7.896;2024-01-10T09:45:04;2.40;99.90
12811;DHT22;6470;47.654;7.896;2024-01-10T09:47:31;2.30;99.90
12811;DHT22;6470;47.654;7.896;2024-01-10T09:49:57;2.00;99.90
12811;DHT22;6470;47.654;7.896;2024-01-10T09:52:27;2.10;99.90
12811;DHT22;6470;47.654;7.896;2024-01-10T09:54:55;2.10;99.90
12811;DHT22;6470;47.654;7.896;2024-01-10T09:57:22;-0.20;99.90
12811;DHT22;6470;47.654;7.896;2024-01-10T09:59:50;-0.20;99.90
12811;DHT22;6470;47.654;7.896;2024-01-10T10:02:18;-1.40;99.90
12811;DHT22;6470;47.654;7.896;2024-01-10T10:05:07;2.30;99.90
12811;DHT22;6470;47.654;7.896;2024-01-10T10:07:50;2.30;99.90
12811;DHT22;6470;47.654;7.896;2024-01-10T10:10:18;2.60;99.90
12811;DHT22;6470;47.654;7.896;2024-01-10T10:12:50;2.50;99.90
12811;DHT22;6470;47.654;7.896;2024-01-10T10:15:23;2.20;99.90
12811;DHT22;6470;47.654;7.896;2024-01-10T10:17:51;2.50;99.90
12811;DHT22;6470;47.654;7.896;2024-01-10T10:20:23;2.30;99.90
12811;DHT22;6470;47.654;7.896;2024-01-10T10:23:03;0.10;99.90
12811;DHT22;6470;47.654;7.896;2024-01-10T10:25:36;2.70;99.90
12811;DHT22;6470;47.654;7.896;2024-01-10T10:28:04;2.50;99.90
12811;DHT22;6470;47.654;7.896;2024-01-10T10:30:33;2.10;99.90
12811;DHT22;6470;47.654;7.896;2024-01-10T10:32:59;2.20;99.90
12811;DHT22;6470;47.654;7.896;2024-01-10T10:35:25;2.40;99.90
12811;DHT22;6470;47.654;7.896;2024-01-10T10:37:52;2.00;99.90
12811;DHT22;6470;47.654;7.896;2024-01-10T10:40:19;2.70;99.90
12811;DHT22;6470;47.654;7.896;2024-01-10T10:42:49;2.60;99.90
12811;DHT22;6470;47.654;7.896;2024-01-10T10:45:20;-1.70;99.90
12811;DHT22;6470;47.654;7.896;2024-01-10T10:50:23;2.80;99.90
12811;DHT22;6470;47.654;7.896;2024-01-10T10:52:49;2.70;99.90
12811;DHT22;6470;47.654;7.896;2024-01-10T10:55:16;2.30;99.90
12811;DHT22;6470;47.654;7.896;2024-01-10T10:57:49;2.30;99.90
12811;DHT22;6470;47.654;7.896;2024-01-10T11:00:19;1.80;99.90
12811;DHT22;6470;47.654;7.896;2024-01-10T11:02:46;-1.80;99.90
12811;DHT22;6470;47.654;7.896;2024-01-10T11:05:12;-1.50;99.90
12811;DHT22;6470;47.654;7.896;2024-01-10T11:07:43;-1.30;99.90
12811;DHT22;6470;47.654;7.896;2024-01-10T11:10:17;2.80;99.90
12811;DHT22;6470;47.654;7.896;2024-01-10T11:23:49;2.70;99.90
12811;DHT22;6470;47.654;7.896;2024-01-10T11:26:16;2.90;99.90
12811;DHT22;6470;47.654;7.896;2024-01-10T11:28:42;2.10;99.90
12811;DHT22;6470;47.654;7.896;2024-01-10T11:31:08;2.60;99.90
12811;DHT22;6470;47.654;7.896;2024-01-10T11:33:44;1.90;99.90
12811;DHT22;6470;47.654;7.896;2024-01-10T11:36:16;-0.50;99.90
12811;DHT22;6470;47.654;7.896;2024-01-10T11:41:19;-1.10;99.90
12811;DHT22;6470;47.654;7.896;2024-01-10T11:43:45;2.90;99.90
12811;DHT22;6470;47.654;7.896;2024-01-10T11:46:12;2.70;99.90
12811;DHT22;6470;47.654;7.896;2024-01-10T11:51:05;2.70;99.90
12811;DHT22;6470;47.654;7.896;2024-01-10T11:53:41;-1.10;99.90
12811;DHT22;6470;47.654;7.896;2024-01-10T11:56:12;2.30;99.90
12811;DHT22;6470;47.654;7.896;2024-01-10T11:59:15;2.60;99.90
12811;DHT22;6470;47.654;7.896;2024-01-10T12:01:42;2.30;99.90
12811;DHT22;6470;47.654;7.896;2024-01-10T12:04:08;-0.90;99.90
12811;DHT22;6470;47.654;7.896;2024-01-10T12:09:04;2.80;99.90
12811;DHT22;6470;47.654;7.896;2024-01-10T12:11:39;2.60;99.90
12811;DHT22;6470;47.654;7.896;2024-01-10T12:14:06;2.20;99.90
12811;DHT22;6470;47.654;7.896;2024-01-10T12:16:35;2.40;99.90
12811;DHT22;6470;47.654;7.896;2024-01-10T12:19:01;3.00;99.90
12811;DHT22;6470;47.654;7.896;2024-01-10T12:21:26;2.90;99.90
12811;DHT22;6470;47.654;7.896;2024-01-10T12:23:52;3.10;99.90
12811;DHT22;6470;47.654;7.896;2024-01-10T12:26:18;3.40;99.90
12811;DHT22;6470;47.654;7.896;2024-01-10T12:28:58;2.90;99.90
12811;DHT22;6470;47.654;7.896;2024-01-10T12:31:26;2.80;99.90
12811;DHT22;6470;47.654;7.896;2024-01-10T12:33:54;2.70;99.90
12811;DHT22;6470;47.654;7.896;2024-01-10T12:41:15;3.00;99.90
12811;DHT22;6470;47.654;7.896;2024-01-10T12:43:42;3.10;99.90
12811;DHT22;6470;47.654;7.896;2024-01-10T12:46:11;2.30;99.90
12811;DHT22;6470;47.654;7.896;2024-01-10T12:48:38;2.80;99.90
12811;DHT22;6470;47.654;7.896;2024-01-10T12:51:10;2.70;99.90
12811;DHT22;6470;47.654;7.896;2024-01-10T12:53:43;1.80;99.90
12811;DHT22;6470;47.654;7.896;2024-01-10T12:56:10;2.50;99.90
12811;DHT22;6470;47.654;7.896;2024-01-10T12:58:41;2.50;99.90
12811;DHT22;6470;47.654;7.896;2024-01-10T13:01:10;2.50;99.90
12811;DHT22;6470;47.654;7.896;2024-01-10T13:03:40;-0.70;99.90
12811;DHT22;6470;47.654;7.896;2024-01-10T13:06:05;2.80;99.90
12811;DHT22;6470;47.654;7.896;2024-01-10T13:08:31;2.60;99.90
12811;DHT22;6470;47.654;7.896;2024-01-10T13:11:00;-1.10;99.90
12811;DHT22;6470;47.654;7.896;2024-01-10T13:20:45;1.80;99.90
12811;DHT22;6470;47.654;7.896;2024-01-10T13:23:11;2.90;99.90
12811;DHT22;6470;47.654;7.896;2024-01-10T13:28:05;-1.60;99.90
12811;DHT22;6470;47.654;7.896;2024-01-10T13:30:31;2.80;99.90
12811;DHT22;6470;47.654;7.896;2024-01-10T13:32:57;2.90;99.90
12811;DHT22;6470;47.654;7.896;2024-01-10T13:35:24;2.60;99.90
12811;DHT22;6470;47.654;7.896;2024-01-10T13:37:50;2.80;99.90
12811;DHT22;6470;47.654;7.896;2024-01-10T13:40:15;3.00;99.90
12811;DHT22;6470;47.654;7.896;2024-01-10T13:42:42;1.40;99.90
12811;DHT22;6470;47.654;7.896;2024-01-10T13:45:09;2.90;99.90
12811;DHT22;6470;47.654;7.896;2024-01-10T13:47:38;3.10;99.90
12811;DHT22;6470;47.654;7.896;2024-01-10T13:50:05;2.40;99.90
12811;DHT22;6470;47.654;7.896;2024-01-10T13:52:32;2.60;99.90
12811;DHT22;6470;47.654;7.896;2024-01-10T13:54:59;2.90;99.90
12811;DHT22;6470;47.654;7.896;2024-01-10T13:57:25;2.70;99.90
12811;DHT22;6470;47.654;7.896;2024-01-10T13:59:50;2.80;99.90
12811;DHT22;6470;47.654;7.896;2024-01-10T14:02:16;2.10;99.90
12811;DHT22;6470;47.654;7.896;2024-01-10T14:04:44;2.00;99.90
12811;DHT22;6470;47.654;7.896;2024-01-10T14:07:10;2.70;99.90
12811;DHT22;6470;47.654;7.896;2024-01-10T14:12:02;2.20;99.90
12811;DHT22;6470;47.654;7.896;2024-01-10T14:14:28;2.50;99.90
12811;DHT22;6470;47.654;7.896;2024-01-10T14:16:54;2.70;99.90
12811;DHT22;6470;47.654;7.896;2024-01-10T14:19:20;2.70;99.90
12811;DHT22;6470;47.654;7.896;2024-01-10T14:21:46;-1.90;99.90
12811;DHT22;6470;47.654;7.896;2024-01-10T14:24:12;2.90;99.90
12811;DHT22;6470;47.654;7.896;2024-01-10T14:26:38;2.80;99.90
12811;DHT22;6470;47.654;7.896;2024-01-10T14:31:31;2.80;99.90
12811;DHT22;6470;47.654;7.896;2024-01-10T14:33:57;2.80;99.90
12811;DHT22;6470;47.654;7.896;2024-01-10T14:38:49;2.40;99.90
12811;DHT22;6470;47.654;7.896;2024-01-10T14:41:16;2.50;99.90
12811;DHT22;6470;47.654;7.896;2024-01-10T14:43:41;-2.10;99.90
12811;DHT22;6470;47.654;7.896;2024-01-10T14:46:07;2.60;99.90
12811;DHT22;6470;47.654;7.896;2024-01-10T14:50:59;-2.00;99.90
12811;DHT22;6470;47.654;7.896;2024-01-10T14:53:30;2.60;99.90
12811;DHT22;6470;47.654;7.896;2024-01-10T14:58:22;2.60;99.90
12811;DHT22;6470;47.654;7.896;2024-01-10T15:00:48;2.20;99.90
12811;DHT22;6470;47.654;7.896;2024-01-10T15:03:14;2.30;99.90
12811;DHT22;6470;47.654;7.896;2024-01-10T15:05:41;2.40;99.90
12811;DHT22;6470;47.654;7.896;2024-01-10T15:08:08;2.50;99.90
12811;DHT22;6470;47.654;7.896;2024-01-10T15:10:35;2.20;99.90
12811;DHT22;6470;47.654;7.896;2024-01-10T15:13:01;2.70;99.90
12811;DHT22;6470;47.654;7.896;2024-01-10T15:15:27;2.00;99.90
12811;DHT22;6470;47.654;7.896;2024-01-10T15:17:53;2.80;99.90
12811;DHT22;6470;47.654;7.896;2024-01-10T15:20:18;2.70;99.90
12811;DHT22;6470;47.654;7.896;2024-01-10T15:22:44;2.90;99.90
12811;DHT22;6470;47.654;7.896;2024-01-10T15:25:10;2.60;99.90
12811;DHT22;6470;47.654;7.896;2024-01-10T15:27:36;2.70;99.90
12811;DHT22;6470;47.654;7.896;2024-01-10T15:30:02;2.10;99.90
12811;DHT22;6470;47.654;7.896;2024-01-10T15:32:31;2.50;99.90
12811;DHT22;6470;47.654;7.896;2024-01-10T15:34:57;2.70;99.90
12811;DHT22;6470;47.654;7.896;2024-01-10T15:37:23;2.50;99.90
12811;DHT22;6470;47.654;7.896;2024-01-10T15:39:49;2.30;99.90
12811;DHT22;6470;47.654;7.896;2024-01-10T15:42:15;2.60;99.90
12811;DHT22;6470;47.654;7.896;2024-01-10T15:44:42;2.70;99.90
12811;DHT22;6470;47.654;7.896;2024-01-10T15:47:08;2.80;99.90
12811;DHT22;6470;47.654;7.896;2024-01-10T15:49:34;0.00;99.90
12811;DHT22;6470;47.654;7.896;2024-01-10T15:54:27;2.50;99.90
12811;DHT22;6470;47.654;7.896;2024-01-10T15:56:53;2.30;99.90
12811;DHT22;6470;47.654;7.896;2024-01-10T15:59:19;2.60;99.90
12811;DHT22;6470;47.654;7.896;2024-01-10T16:01:46;2.20;99.90
12811;DHT22;6470;47.654;7.896;2024-01-10T16:04:11;2.40;99.90
12811;DHT22;6470;47.654;7.896;2024-01-10T16:06:37;0.00;99.90
12811;DHT22;6470;47.654;7.896;2024-01-10T16:09:05;2.60;99.90
12811;DHT22;6470;47.654;7.896;2024-01-10T16:11:39;2.50;99.90
12811;DHT22;6470;47.654;7.896;2024-01-10T16:14:05;2.20;99.90
12811;DHT22;6470;47.654;7.896;2024-01-10T16:16:31;2.40;99.90
12811;DHT22;6470;47.654;7.896;2024-01-10T16:18:58;2.20;99.90
12811;DHT22;6470;47.654;7.896;2024-01-10T16:23:50;2.60;99.90
12811;DHT22;6470;47.654;7.896;2024-01-10T16:28:42;2.60;99.90
12811;DHT22;6470;47.654;7.896;2024-01-10T16:31:08;1.80;99.90
12811;DHT22;6470;47.654;7.896;2024-01-10T16:33:34;2.10;99.90
12811;DHT22;6470;47.654;7.896;2024-01-10T16:38:27;2.50;99.90
12811;DHT22;6470;47.654;7.896;2024-01-10T16:43:19;2.70;99.90
12811;DHT22;6470;47.654;7.896;2024-01-10T16:45:45;2.60;99.90
12811;DHT22;6470;47.654;7.896;2024-01-10T16:48:10;1.90;99.90
12811;DHT22;6470;47.654;7.896;2024-01-10T16:50:36;2.80;99.90
12811;DHT22;6470;47.654;7.896;2024-01-10T16:53:02;2.10;99.90
12811;DHT22;6470;47.654;7.896;2024-01-10T16:55:29;2.10;99.90
12811;DHT22;6470;47.654;7.896;2024-01-10T17:00:21;2.70;99.90
12811;DHT22;6470;47.654;7.896;2024-01-10T17:02:48;2.10;99.90
12811;DHT22;6470;47.654;7.896;2024-01-10T17:05:14;2.70;99.90
12811;DHT22;6470;47.654;7.896;2024-01-10T17:07:40;2.30;99.90
12811;DHT22;6470;47.654;7.896;2024-01-10T17:10:06;2.70;99.90
12811;DHT22;6470;47.654;7.896;2024-01-10T17:12:32;-2.10;99.90
12811;DHT22;6470;47.654;7.896;2024-01-10T17:14:58;2.40;99.90
12811;DHT22;6470;47.654;7.896;2024-01-10T17:17:23;2.80;99.90
12811;DHT22;6470;47.654;7.896;2024-01-10T17:19:49;2.10;99.90
12811;DHT22;6470;47.654;7.896;2024-01-10T17:22:15;2.30;99.90
12811;DHT22;6470;47.654;7.896;2024-01-10T17:24:41;-2.00;99.90
12811;DHT22;6470;47.654;7.896;2024-01-10T17:29:36;2.10;99.90
12811;DHT22;6470;47.654;7.896;2024-01-10T17:32:01;2.30;99.90
12811;DHT22;6470;47.654;7.896;2024-01-10T17:34:27;2.40;99.90
12811;DHT22;6470;47.654;7.896;2024-01-10T17:36:55;2.70;99.90
12811;DHT22;6470;47.654;7.896;2024-01-10T17:39:21;2.60;99.90
12811;DHT22;6470;47.654;7.896;2024-01-10T17:41:46;2.20;99.90
12811;DHT22;6470;47.654;7.896;2024-01-10T17:44:13;0.00;99.90
12811;DHT22;6470;47.654;7.896;2024-01-10T17:46:39;2.70;99.90
12811;DHT22;6470;47.654;7.896;2024-01-10T17:49:05;2.70;99.90
12811;DHT22;6470;47.654;7.896;2024-01-10T17:51:31;2.40;99.90
12811;DHT22;6470;47.654;7.896;2024-01-10T17:53:57;-1.90;99.90
12811;DHT22;6470;47.654;7.896;2024-01-10T17:58:49;2.00;99.90
12811;DHT22;6470;47.654;7.896;2024-01-10T18:01:14;-2.00;99.90
12811;DHT22;6470;47.654;7.896;2024-01-10T18:03:40;2.50;99.90
12811;DHT22;6470;47.654;7.896;2024-01-10T18:06:06;-0.20;99.90
12811;DHT22;6470;47.654;7.896;2024-01-10T18:08:32;2.10;99.90
12811;DHT22;6470;47.654;7.896;2024-01-10T18:10:58;2.40;99.90
12811;DHT22;6470;47.654;7.896;2024-01-10T18:15:50;2.10;99.90
12811;DHT22;6470;47.654;7.896;2024-01-10T18:18:15;2.30;99.90
12811;DHT22;6470;47.654;7.896;2024-01-10T18:20:41;2.50;99.90
12811;DHT22;6470;47.654;7.896;2024-01-10T18:23:07;-1.70;99.90
12811;DHT22;6470;47.654;7.896;2024-01-10T18:25:33;2.60;99.90
12811;DHT22;6470;47.654;7.896;2024-01-10T18:27:58;2.50;99.90
12811;DHT22;6470;47.654;7.896;2024-01-10T18:30:24;2.20;99.90
12811;DHT22;6470;47.654;7.896;2024-01-10T18:32:50;2.40;99.90